Latest Weather Observations for Scoresby

IDV60901

Issued at 9:31 pm EDT Sunday 29 March 2015 (issued every 10 minutes, with the page automatically refreshed every 10 minutes)

About weather observations | Map of Melbourne area stations | Latest observations for Melbourne area | Other Formats
Station Details ID: 086104 Name: SCORESBY RESEARCH INSTITUTE Lat: -37.87 Lon: 145.26 Height: 80.0 m
Data from the previous 72 hours. | See also: Recent months at Scoresby
Date/Time
EDT
Tmp

°C
App
Tmp
°C
Dew
Point
°C
Rel
Hum
%
Delta-T

°C
Wind Press
QNH
hPa
Press
MSL
hPa
Rain
since
9 am
mm
Dir
 
Spd
km/h
Gust
km/h
Spd
kts
Gust
kts
29/09:30pm 14.7 13.4 9.1 69 2.9 SSE 6 9 3 5 - - 0.0
29/09:00pm 15.2 13.9 9.1 67 3.1 SSE 6 11 3 6 - - 0.0
29/08:30pm 15.8 14.3 9.2 65 3.4 SSE 7 15 4 8 - - 0.0
29/08:00pm 16.6 14.8 9.3 62 3.8 SSE 9 13 5 7 - - 0.0
29/07:30pm 17.5 15.3 9.4 59 4.2 SSE 11 20 6 11 - - 0.0
29/07:00pm 19.2 16.7 9.7 54 5.1 SE 13 22 7 12 - - 0.0
29/06:30pm 21.5 19.4 8.4 43 6.9 S 9 17 5 9 - - 0.0
29/06:00pm 22.2 20.2 8.7 42 7.2 SSW 9 17 5 9 - - 0.0
29/05:30pm 22.6 20.6 8.7 41 7.4 SSW 9 17 5 9 - - 0.0
29/05:00pm 22.5 20.5 8.6 41 7.4 S 9 17 5 9 - - 0.0
29/04:30pm 22.3 19.9 8.8 42 7.2 S 11 19 6 10 - - 0.0
29/04:00pm 22.6 20.8 9.4 43 7.1 SSW 9 17 5 9 - - 0.0
29/03:30pm 23.0 20.9 9.8 43 7.2 SSW 11 17 6 9 - - 0.0
29/03:00pm 23.0 21.0 10.1 44 7.1 SW 11 17 6 9 - - 0.0
29/02:30pm 22.5 20.0 9.6 44 7.0 SSW 13 20 7 11 - - 0.0
29/02:00pm 23.0 20.1 8.3 39 7.8 WNW 13 24 7 13 - - 0.0
29/01:30pm 22.6 20.2 8.7 41 7.4 NW 11 20 6 11 - - 0.0
29/01:00pm 21.4 19.0 8.7 44 6.7 NNW 11 19 6 10 - - 0.0
29/12:30pm 21.0 18.7 8.9 46 6.4 NNW 11 19 6 10 - - 0.0
29/12:00pm 20.1 18.0 8.4 47 6.1 NW 9 15 5 8 - - 0.0
29/11:30am 19.8 18.3 9.1 50 5.7 NW 7 13 4 7 - - 0.0
29/11:00am 18.4 17.0 9.5 56 4.7 NNE 7 13 4 7 - - 0.0
29/10:30am 16.6 14.8 9.3 62 3.8 NNE 9 15 5 8 - - 0.0
29/10:00am 14.9 13.2 9.7 71 2.7 NNE 9 13 5 7 - - 0.0
29/09:30am 13.8 12.0 9.3 74 2.3 NNE 9 13 5 7 - - 0.0
29/09:00am 12.4 12.4 9.8 84 1.3 CALM 0 4 0 2 - - 0.2
29/08:30am 9.5 8.7 8.3 92 0.6 ENE 2 4 1 2 - - 0.2
29/08:00am 8.3 7.3 7.5 95 0.4 NNE 2 6 1 3 - - 0.0
29/07:30am 7.3 6.1 6.4 94 0.4 NNE 2 4 1 2 - - 0.0
29/07:00am 7.6 6.5 6.9 95 0.3 NNE 2 6 1 3 - - 0.0
29/06:30am 7.6 6.5 6.9 95 0.3 NE 2 6 1 3 - - 0.0
29/06:00am 6.8 5.9 5.9 94 0.4 CALM 0 0 0 0 - - 0.0
29/05:30am 7.9 7.2 7.1 95 0.4 CALM 0 4 0 2 - - 0.0
29/05:00am 8.1 7.5 7.3 95 0.4 CALM 0 2 0 1 - - 0.0
29/04:30am 8.3 7.7 7.5 95 0.4 CALM 0 4 0 2 - - 0.0
29/04:00am 8.4 7.5 7.6 95 0.4 NNE 2 6 1 3 - - 0.0
29/03:30am 8.4 7.8 7.6 95 0.4 CALM 0 2 0 1 - - 0.0
29/03:00am 8.8 8.0 8.0 95 0.4 NE 2 6 1 3 - - 0.0
29/02:30am 8.6 8.1 8.0 96 0.3 CALM 0 0 0 0 - - 0.0
29/02:00am 7.8 6.7 7.1 95 0.3 NE 2 4 1 2 - - 0.0
29/01:30am 7.5 6.8 6.8 95 0.3 CALM 0 0 0 0 - - 0.0
29/01:00am 7.4 6.6 6.7 95 0.3 CALM 0 4 0 2 - - 0.0
29/12:30am 7.9 7.2 7.1 95 0.4 CALM 0 0 0 0 - - 0.0
29/12:00am 8.1 7.5 7.2 94 0.4 CALM 0 0 0 0 - - 0.0
 
Date/Time
EDT
Tmp

°C
App
Tmp
°C
Dew
Point
°C
Rel
Hum
%
Delta-T

°C
Wind Press
QNH
hPa
Press
MSL
hPa
Rain
since
9 am
mm
Dir
 
Spd
km/h
Gust
km/h
Spd
kts
Gust
kts
28/11:30pm 8.4 7.8 7.5 94 0.4 CALM 0 0 0 0 - - 0.0
28/11:00pm 8.8 8.3 7.9 94 0.4 CALM 0 0 0 0 - - 0.0
28/10:30pm 9.1 8.6 8.0 93 0.5 CALM 0 0 0 0 - - 0.0
28/10:00pm 9.6 9.2 8.4 92 0.6 CALM 0 0 0 0 - - 0.0
28/09:30pm 10.1 9.8 8.7 91 0.7 CALM 0 0 0 0 - - 0.0
28/09:00pm 10.8 10.6 9.1 89 0.8 CALM 0 0 0 0 - - 0.0
28/08:30pm 11.1 10.8 8.7 85 1.2 CALM 0 0 0 0 - - 0.0
28/08:00pm 12.8 12.7 9.4 80 1.7 CALM 0 0 0 0 - - 0.0
28/07:30pm 14.7 14.6 9.3 70 2.8 CALM 0 0 0 0 - - 0.0
28/07:00pm 16.3 15.7 8.8 61 3.9 SE 2 4 1 2 - - 0.0
28/06:30pm 17.1 16.5 8.8 58 4.3 SSE 2 6 1 3 - - 0.0
28/06:00pm 17.7 17.4 8.8 56 4.6 CALM 0 4 0 2 - - 0.0
28/05:30pm 17.5 16.2 9.2 58 4.3 ESE 6 9 3 5 - - 0.0
28/05:00pm 16.9 15.5 8.8 59 4.2 ESE 6 9 3 5 - - 0.0
28/04:30pm 17.5 16.6 9.2 58 4.3 ESE 4 11 2 6 - - 0.0
28/04:00pm 17.1 16.8 10.0 63 3.8 SW 2 6 1 3 - - 0.0
28/03:30pm 16.1 15.5 9.1 63 3.6 NE 2 6 1 3 - - 0.0
28/03:00pm 15.6 15.0 10.4 71 2.8 E 4 7 2 4 - - 0.0
28/02:30pm 15.2 15.6 11.2 77 2.1 CALM 0 4 0 2 - - 0.0
28/02:00pm 14.7 14.7 11.1 79 1.9 E 2 6 1 3 - - 0.0
28/01:30pm 13.9 13.8 10.7 81 1.7 E 2 6 1 3 - - 0.0
28/01:00pm 14.0 13.0 10.4 79 1.9 SW 6 11 3 6 - - 0.0
28/12:30pm 13.6 12.9 10.2 80 1.8 NW 4 9 2 5 - - 0.0
28/12:00pm 13.2 13.0 10.4 83 1.5 NNW 2 4 1 2 - - 0.0
28/11:30am 13.0 13.2 10.7 86 1.2 CALM 0 2 0 1 - - 0.0
28/11:00am 13.1 12.3 11.0 87 1.1 N 6 9 3 5 - - 0.0
28/10:30am 13.1 12.7 11.2 88 1.0 NNE 4 6 2 3 - - 0.0
28/10:00am 12.6 12.2 11.2 91 0.7 NNE 4 7 2 4 - - 0.0
28/09:30am 12.2 11.8 11.1 93 0.6 NE 4 6 2 3 - - 0.0
28/09:00am 11.6 11.8 10.7 94 0.5 CALM 0 6 0 3 - - 1.6
28/08:30am 11.6 11.8 10.7 94 0.5 CALM 0 0 0 0 - - 1.6
28/08:00am 11.3 11.5 10.4 94 0.5 CALM 0 0 0 0 - - 1.6
28/07:30am 11.3 11.5 10.4 94 0.5 CALM 0 6 0 3 - - 1.6
28/07:00am 11.3 11.5 10.4 94 0.5 CALM 0 0 0 0 - - 1.6
28/06:30am 11.3 11.0 10.2 93 0.6 NE 2 6 1 3 - - 1.2
28/06:00am 11.4 10.7 10.1 92 0.7 NE 4 7 2 4 - - 0.6
28/05:30am 11.6 10.9 10.0 90 0.8 NE 4 6 2 3 - - 0.6
28/05:00am 11.9 11.2 10.1 89 0.9 NNE 4 7 2 4 - - 0.4
28/04:30am 12.0 12.1 10.1 88 1.0 CALM 0 0 0 0 - - 0.4
28/04:00am 12.1 11.8 10.2 88 1.0 N 2 4 1 2 - - 0.4
28/03:30am 12.2 12.4 10.6 90 0.8 CALM 0 4 0 2 - - 0.4
28/03:00am 12.1 12.0 10.8 92 0.7 NNE 2 4 1 2 - - 0.4
28/02:30am 12.2 12.5 10.9 92 0.7 CALM 0 0 0 0 - - 0.4
28/02:00am 12.1 12.4 10.8 92 0.7 CALM 0 0 0 0 - - 0.4
28/01:30am 12.2 12.5 10.8 91 0.7 CALM 0 0 0 0 - - 0.4
28/01:00am 12.3 12.5 10.5 89 0.9 CALM 0 0 0 0 - - 0.2
28/12:30am 12.4 12.6 10.5 88 1.0 CALM 0 0 0 0 - - 0.2
28/12:00am 12.7 12.8 10.2 85 1.3 CALM 0 0 0 0 - - 0.2
 
Date/Time
EDT
Tmp

°C
App
Tmp
°C
Dew
Point
°C
Rel
Hum
%
Delta-T

°C
Wind Press
QNH
hPa
Press
MSL
hPa
Rain
since
9 am
mm
Dir
 
Spd
km/h
Gust
km/h
Spd
kts
Gust
kts
27/11:30pm 12.9 11.9 9.0 77 2.0 SSE 4 6 2 3 - - 0.0
27/11:00pm 13.7 12.5 8.1 69 2.8 WSW 4 9 2 5 - - 0.0
27/10:30pm 13.7 11.6 8.3 70 2.7 SW 9 15 5 8 - - 0.0
27/10:00pm 14.3 12.3 8.5 68 2.9 SSW 9 24 5 13 - - 0.0
27/09:30pm 14.5 11.9 9.3 71 2.7 SW 13 20 7 11 - - 0.0
27/09:00pm 14.6 12.9 8.5 67 3.1 SSW 7 13 4 7 - - 0.0
27/08:30pm 14.8 12.8 8.7 67 3.1 SW 9 17 5 9 - - 0.0
27/08:00pm 14.7 12.2 8.4 66 3.2 SSW 11 15 6 8 - - 0.0
27/07:30pm 14.5 12.9 8.9 69 2.9 SSW 7 13 4 7 - - 0.0
27/07:00pm 15.1 12.2 8.3 64 3.4 SW 13 22 7 12 - - 0.0
27/06:30pm 15.2 12.9 7.3 59 3.9 SW 9 26 5 14 - - 0.0
27/06:00pm 15.3 12.4 8.3 63 3.5 SW 13 28 7 15 - - 0.0
27/05:30pm 15.5 12.5 7.8 60 3.9 WSW 13 22 7 12 - - 0.0
27/05:00pm 15.6 12.2 7.6 59 4.0 W 15 20 8 11 - - 0.0
27/04:30pm 16.1 12.6 7.3 56 4.4 SW 15 26 8 14 - - 0.0
27/04:00pm 15.8 11.9 7.3 57 4.2 WSW 17 30 9 16 - - 0.0
27/03:30pm 15.4 12.1 7.9 61 3.8 WSW 15 32 8 17 - - 0.0
27/03:00pm 16.1 12.2 7.1 55 4.5 WSW 17 24 9 13 - - 0.0
27/02:30pm 15.7 12.3 7.5 58 4.1 SW 15 24 8 13 - - 0.0
27/02:00pm 16.4 12.2 7.6 56 4.4 WSW 19 32 10 17 - - 0.0
27/01:30pm 15.7 12.1 8.4 62 3.7 SW 17 30 9 16 - - 0.0
27/01:00pm 15.4 12.5 9.5 68 3.1 WSW 15 24 8 13 - - 0.0
27/12:30pm 14.1 12.2 10.5 79 1.9 WSW 11 20 6 11 - - 0.0
27/12:00pm 14.4 10.9 8.8 69 2.8 WSW 17 28 9 15 - - 0.0
27/11:30am 14.7 10.7 8.4 66 3.2 WSW 19 32 10 17 - - 0.0
27/11:00am 13.8 9.3 8.6 71 2.6 W 22 41 12 22 - - 0.0
27/10:30am 14.2 10.7 8.8 70 2.7 W 17 39 9 21 - - 0.0
27/10:00am 13.3 10.3 9.4 77 2.0 W 15 26 8 14 - - 0.0
27/09:30am 13.4 10.0 9.1 75 2.2 W 17 26 9 14 - - 0.0
27/09:00am 13.4 10.0 9.3 76 2.1 W 17 26 9 14 - - 0.6
27/08:30am 13.3 9.9 9.2 76 2.1 W 17 28 9 15 - - 0.6
27/08:00am 13.2 9.4 8.9 75 2.2 W 19 32 10 17 - - 0.6
27/07:30am 13.2 10.5 9.1 76 2.1 W 13 24 7 13 - - 0.6
27/07:00am 13.1 9.3 9.0 76 2.1 W 19 30 10 16 - - 0.6
27/06:30am 12.9 10.2 9.0 77 2.0 WNW 13 24 7 13 - - 0.6
27/06:00am 12.7 10.0 9.0 78 1.9 WNW 13 19 7 10 - - 0.6
27/05:30am 12.8 10.1 9.1 78 1.9 WNW 13 26 7 14 - - 0.6
27/05:00am 12.7 10.4 9.0 78 1.9 WNW 11 22 6 12 - - 0.6
27/04:30am 12.6 11.0 8.9 78 1.9 WNW 7 15 4 8 - - 0.6
27/04:00am 12.8 10.1 8.9 77 2.0 WNW 13 24 7 13 - - 0.6
27/03:30am 13.1 10.4 9.0 76 2.1 WNW 13 22 7 12 - - 0.6
27/03:00am 13.3 11.1 9.2 76 2.1 WNW 11 20 6 11 - - 0.6
27/02:30am 13.2 10.2 9.1 76 2.1 WNW 15 26 8 14 - - 0.6
27/02:00am 13.5 10.0 8.8 73 2.4 WNW 17 30 9 16 - - 0.6
27/01:30am 13.2 10.4 8.7 74 2.3 WNW 13 22 7 12 - - 0.6
27/01:00am 13.6 10.5 8.7 72 2.5 WNW 15 28 8 15 - - 0.6
27/12:30am 13.6 10.1 8.7 72 2.5 WNW 17 32 9 17 - - 0.6
27/12:00am 13.7 10.1 8.5 71 2.6 WNW 17 33 9 18 - - 0.6
 
Date/Time
EDT
Tmp

°C
App
Tmp
°C
Dew
Point
°C
Rel
Hum
%
Delta-T

°C
Wind Press
QNH
hPa
Press
MSL
hPa
Rain
since
9 am
mm
Dir
 
Spd
km/h
Gust
km/h
Spd
kts
Gust
kts
26/11:30pm 13.8 10.2 8.4 70 2.7 WNW 17 33 9 18 - - 0.6
26/11:00pm 13.7 10.1 8.3 70 2.7 WNW 17 30 9 16 - - 0.6
26/10:30pm 13.7 10.0 8.1 69 2.8 WNW 17 26 9 14 - - 0.6
26/10:00pm 13.8 10.1 8.0 68 2.9 NW 17 35 9 19 - - 0.6

Latest Capital City Observations: Canberra | Sydney | Melbourne | Brisbane | Adelaide | Perth | Hobart | Darwin

Other Formats:

Comma delimited format used in spreadsheet applications
http://www.bom.gov.au/fwo/IDV60901/IDV60901.95867.axf

JavaScript Object Notation format (JSON) in row-major order
http://www.bom.gov.au/fwo/IDV60901/IDV60901.95867.json